Sorlandet — LDTY — position and weather

sailwx.info

Track history (hours):
 
Tides and Currents Weather Stations Pressure Air Temp Water Temp Dewpoint Dewpoint Depression Visibility Wind Speed Wind Dir Waves Ship Positions

Sorlandet (Norway)

Last reported at 2019-Sep-21 21:00 UTC. Time now 2019-Sep-21 21:22 UTC.
Position N 49°48' W 001°59'.

Length 64 m; draft 4.5 m.

Type: Sailing vessel. MMSI: 257165000.

Date/timePositionNaut miles runAvg speedWind from/ knotsBaromVisibWave heightAir tempDewpointWater temp
2019-Sep-21 21:00N 49°48' W 001°59'2 3.4
2019-Sep-21 20:30N 49°48' W 001°56'2 4.0
2019-Sep-21 20:00N 49°49' W 001°53'3 5.0
2019-Sep-21 19:30N 49°49' W 001°49'3 5.7
2019-Sep-21 19:00N 49°50' W 001°45'3 5.9
2019-Sep-21 18:30N 49°51' W 001°40'3 6.3
2019-Sep-21 18:00N 49°51' W 001°36'3 5.8
2019-Sep-21 17:30N 49°52' W 001°31'3 6.1
2019-Sep-21 17:00N 49°53' W 001°27'3 6.2
2019-Sep-21 16:30N 49°54' W 001°22'3 6.7
2019-Sep-21 16:00N 49°55' W 001°17'4 7.0
2019-Sep-21 15:30N 49°56' W 001°12'3 6.4
2019-Sep-21 15:00N 49°58' W 001°08'3 6.0
2019-Sep-21 14:30N 49°59' W 001°04'3 5.5
2019-Sep-21 14:00N 50°01' W 001°00'2 5.0
2019-Sep-21 13:30N 50°02' W 000°58'2 4.7
2019-Sep-21 13:00N 50°04' W 000°55'2 4.7
2019-Sep-21 12:30N 50°05' W 000°52'2 4.7
2019-Sep-21 12:00N 50°07' W 000°49'2 4.7
2019-Sep-21 11:30N 50°08' W 000°46'3 5.1
2019-Sep-21 11:00N 50°10' W 000°43'4 6.7
2019-Sep-21 10:26N 50°13' W 000°39'5 6.5
2019-Sep-21 09:38N 50°16' W 000°33'1 6.9
2019-Sep-21 09:27N 50°17' W 000°31'76 7.6
2019-Sep-20 23:27N 50°56' E 001°12'11 8.7
2019-Sep-20 22:13N 51°03' E 001°25'210.7
2019-Sep-20 22:00N 51°04' E 001°28'510.9
2019-Sep-20 21:30N 51°07' E 001°35'611.2
2019-Sep-20 21:00N 51°11' E 001°41'510.1
2019-Sep-20 20:30N 51°15' E 001°46'5 9.5
2019-Sep-20 20:00N 51°20' E 001°49'5 9.0
2019-Sep-20 19:30N 51°24' E 001°52'4 8.5
2019-Sep-20 19:00N 51°28' E 001°55'4 8.7
2019-Sep-20 18:30N 51°31' E 001°59'21 8.0
2019-Sep-20 15:51N 51°51' E 002°11'4 7.6
2019-Sep-20 15:23N 51°55' E 002°13'4 7.3
2019-Sep-20 14:54N 51°58' E 002°14'3 7.2
2019-Sep-20 14:30N 52°01' E 002°16'5 7.3
2019-Sep-20 13:51N 52°05' E 002°18'3 7.2
2019-Sep-20 13:23N 52°09' E 002°20'4 6.6
2019-Sep-20 12:47N 52°12' E 002°22'2 6.5
2019-Sep-20 12:25N 52°15' E 002°23'3 7.0
2019-Sep-20 12:00N 52°17' E 002°25'6 6.6
2019-Sep-20 11:09N 52°22' E 002°28'1 5.2
2019-Sep-20 10:57N 52°23' E 002°29'5 6.9
2019-Sep-20 10:12N 52°28' E 002°31'2 6.7
2019-Sep-20 09:52N 52°30' E 002°33'344 6.6
2019-Sep-18 05:57N 58°13' E 003°41'13 8.5
2019-Sep-18 04:27N 58°25' E 003°39'4 8.4
2019-Sep-18 03:59N 58°29' E 003°39'4 8.1
2019-Sep-18 03:28N 58°33' E 003°38'4 8.3
2019-Sep-18 02:59N 58°38' E 003°37'19 7.8
2019-Sep-18 00:34N 58°56' E 003°33'1 8.1
2019-Sep-18 00:29N 58°57' E 003°33'4 8.0
2019-Sep-18 00:00N 59°01' E 003°33'4 7.8
2019-Sep-17 23:30N 59°05' E 003°33'4 7.5
2019-Sep-17 23:00N 59°08' E 003°33'4 7.7
2019-Sep-17 22:30N 59°12' E 003°32'4 7.4
2019-Sep-17 22:00N 59°16' E 003°32'4 7.8
2019-Sep-17 21:30N 59°20' E 003°32'4 8.0
2019-Sep-17 21:00N 59°24' E 003°33'4 7.5
2019-Sep-17 20:29N 59°28' E 003°34'4 8.0
2019-Sep-17 20:00N 59°31' E 003°35'4 8.5
2019-Sep-17 19:30N 59°36' E 003°36'4 8.4
2019-Sep-17 19:00N 59°40' E 003°37'4 7.9
2019-Sep-17 18:30N 59°44' E 003°38'4 7.9
2019-Sep-17 18:00N 59°48' E 003°39'4 8.0
2019-Sep-17 17:30N 59°52' E 003°40'4 8.2
2019-Sep-17 17:00N 59°56' E 003°41'5 9.0
2019-Sep-17 16:30N 60°00' E 003°42'5 9.3
2019-Sep-17 16:00N 60°05' E 003°43'4 8.9
2019-Sep-17 15:30N 60°09' E 003°44'5 9.6
2019-Sep-17 15:00N 60°14' E 003°44'5 9.2
2019-Sep-17 14:30N 60°19' E 003°45'5 9.9
2019-Sep-17 14:00N 60°24' E 003°46'5 9.5
2019-Sep-17 13:30N 60°28' E 003°47'5 9.5
2019-Sep-17 13:00N 60°33' E 003°47'5 9.4
2019-Sep-17 12:30N 60°38' E 003°48'5 8.9
2019-Sep-17 12:00N 60°42' E 003°48'4 8.7
2019-Sep-17 11:30N 60°47' E 003°49'4 7.9
2019-Sep-17 11:00N 60°50' E 003°51'4 8.6
2019-Sep-17 10:30N 60°54' E 003°54'4 7.6
2019-Sep-17 10:00N 60°58' E 003°57'3 6.6
2019-Sep-17 09:29N 61°01' E 004°00'4 7.8
2019-Sep-17 08:59N 61°05' E 004°02'3 5.8
2019-Sep-17 08:30N 61°07' E 004°03'2 3.9
2019-Sep-17 08:00N 61°09' E 004°05'2 3.7
2019-Sep-17 07:30N 61°11' E 004°05'2 3.4
2019-Sep-17 07:00N 61°13' E 004°07'2 3.4
2019-Sep-17 06:30N 61°14' E 004°08'2 4.1
2019-Sep-17 06:00N 61°16' E 004°09'3 6.0
2019-Sep-17 05:30N 61°19' E 004°10'3 6.0
2019-Sep-17 05:00N 61°22' E 004°11'3 6.1
2019-Sep-17 04:29N 61°25' E 004°12'3 6.9
2019-Sep-17 04:01N 61°29' E 004°13'3 5.8
2019-Sep-17 03:29N 61°31' E 004°14'3 6.3
2019-Sep-17 03:00N 61°35' E 004°14'3 6.4
2019-Sep-17 02:30N 61°38' E 004°14'3 6.0
2019-Sep-17 01:59N 61°41' E 004°15'3 6.4
2019-Sep-17 01:30N 61°44' E 004°16'3 6.3
2019-Sep-17 01:01N 61°47' E 004°18'3 5.6
2019-Sep-17 00:29N 61°49' E 004°21'3 5.7
2019-Sep-17 00:00N 61°52' E 004°24'3 5.4
2019-Sep-16 23:30N 61°54' E 004°28'3 5.5
2019-Sep-16 22:59N 61°56' E 004°31'3 5.2
2019-Sep-16 22:30N 61°58' E 004°34'2 5.0
2019-Sep-16 22:00N 62°00' E 004°38'3 5.4
2019-Sep-16 21:31N 62°02' E 004°41'3 5.4
2019-Sep-16 21:00N 62°05' E 004°43'3 5.1
2019-Sep-16 20:30N 62°07' E 004°46'3 5.6
2019-Sep-16 20:00N 62°10' E 004°49'3 5.8
2019-Sep-16 19:30N 62°12' E 004°51'3 6.0
2019-Sep-16 19:00N 62°15' E 004°54'2 4.9
2019-Sep-16 18:30N 62°16' E 004°58'2 3.6
2019-Sep-16 18:00N 62°17' E 005°02'1 2.9
2019-Sep-16 17:29N 62°17' E 005°05'2 3.1
2019-Sep-16 17:00N 62°17' E 005°08'2 3.2
2019-Sep-16 16:30N 62°17' E 005°11'2 3.0
2019-Sep-16 16:00N 62°17' E 005°15'2 3.3
2019-Sep-16 15:30N 62°17' E 005°18'2 3.8
2019-Sep-16 15:01N 62°17' E 005°22'2 4.1
2019-Sep-16 14:30N 62°17' E 005°27'2 3.5
2019-Sep-16 13:59N 62°16' E 005°30'3 7.1
2019-Sep-16 13:31N 62°13' E 005°32'3 6.8
2019-Sep-16 13:00N 62°11' E 005°38'3 6.5
2019-Sep-16 12:30N 62°12' E 005°45'4 7.2
2019-Sep-16 11:59N 62°13' E 005°52'4 6.9
2019-Sep-16 11:28N 62°16' E 005°57'3 6.1
2019-Sep-16 10:57N 62°18' E 006°02'3 6.8
2019-Sep-16 10:30N 62°20' E 006°06'3 6.0
2019-Sep-16 10:00N 62°23' E 006°05'3 6.6
2019-Sep-16 09:30N 62°26' E 006°02'3 5.5
2019-Sep-16 09:00N 62°28' E 006°05'2 3.9
2019-Sep-16 08:30N 62°28' E 006°09'0 0.0
2019-Sep-16 07:58N 62°28' E 006°09'0 0.0
2019-Sep-16 07:29N 62°28' E 006°09'0 0.0
2019-Sep-16 06:58N 62°28' E 006°09'0 0.0
2019-Sep-16 06:29N 62°28' E 006°09'0 0.0
2019-Sep-16 05:56N 62°28' E 006°09'0 0.0
2019-Sep-16 05:29N 62°28' E 006°09'0 0.0
2019-Sep-16 04:58N 62°28' E 006°09'0 0.0
2019-Sep-16 04:29N 62°28' E 006°09'0 0.0
2019-Sep-16 03:58N 62°28' E 006°09'0 0.0
2019-Sep-16 03:29N 62°28' E 006°09'0 0.0
2019-Sep-16 02:59N 62°28' E 006°09'0 0.0
2019-Sep-16 02:28N 62°28' E 006°09'0 0.0
2019-Sep-16 01:58N 62°28' E 006°09'0 0.0
2019-Sep-16 01:28N 62°28' E 006°09'0 0.0
2019-Sep-16 00:58N 62°28' E 006°09'0 0.0
2019-Sep-16 00:28N 62°28' E 006°09'0 0.0
2019-Sep-15 23:58N 62°28' E 006°09'0 0.0
2019-Sep-15 23:28N 62°28' E 006°09'0 0.0
2019-Sep-15 22:59N 62°28' E 006°09'0 0.0
2019-Sep-15 22:28N 62°28' E 006°09'0 0.0
2019-Sep-15 21:58N 62°28' E 006°09'0 0.0
2019-Sep-15 21:28N 62°28' E 006°09'0 0.0
2019-Sep-15 20:56N 62°28' E 006°09'0 0.0
2019-Sep-15 20:28N 62°28' E 006°09'0 0.0
2019-Sep-15 19:55N 62°28' E 006°09'0 0.0
2019-Sep-15 19:28N 62°28' E 006°09'0 0.0
2019-Sep-15 18:58N 62°28' E 006°09'0 0.0
2019-Sep-15 18:28N 62°28' E 006°09'0 0.0
2019-Sep-15 17:58N 62°28' E 006°09'0 0.0
2019-Sep-15 17:28N 62°28' E 006°09'0 0.0
2019-Sep-15 16:58N 62°28' E 006°09'0 0.0
2019-Sep-15 16:28N 62°28' E 006°09'0 0.0
2019-Sep-15 15:58N 62°28' E 006°09'0 0.0
2019-Sep-15 15:28N 62°28' E 006°09'0 0.0
2019-Sep-15 14:58N 62°28' E 006°09'0 0.0
2019-Sep-15 14:28N 62°28' E 006°09'0 0.0
2019-Sep-15 13:58N 62°28' E 006°09'0 0.0
2019-Sep-15 13:25N 62°28' E 006°09'0 0.0
2019-Sep-15 12:58N 62°28' E 006°09'0 0.0
2019-Sep-15 12:28N 62°28' E 006°09'0 0.0
2019-Sep-15 11:58N 62°28' E 006°09'0 0.0
2019-Sep-15 11:29N 62°28' E 006°09'0 0.0
2019-Sep-15 10:58N 62°28' E 006°09'0 0.0
2019-Sep-15 10:28N 62°28' E 006°09'0 0.0
2019-Sep-15 09:58N 62°28' E 006°09'0 0.0
2019-Sep-15 09:28N 62°28' E 006°09'0 0.0
2019-Sep-15 08:58N 62°28' E 006°09'0 0.0
2019-Sep-15 08:28N 62°28' E 006°09'0 0.0
2019-Sep-15 07:58N 62°28' E 006°09'0 0.0
2019-Sep-15 07:28N 62°28' E 006°09'0 0.0
2019-Sep-15 06:58N 62°28' E 006°09'0 0.0
2019-Sep-15 06:28N 62°28' E 006°09'0 0.0
2019-Sep-15 05:58N 62°28' E 006°09'0 0.0
2019-Sep-15 05:28N 62°28' E 006°09'0 0.0
2019-Sep-15 04:58N 62°28' E 006°09'0 0.0
2019-Sep-15 04:28N 62°28' E 006°09'0 0.0
2019-Sep-15 03:58N 62°28' E 006°09'0 0.0
2019-Sep-15 03:28N 62°28' E 006°09'0 0.0
2019-Sep-15 02:55N 62°28' E 006°09'0 0.0
2019-Sep-15 02:28N 62°28' E 006°09'0 0.0
2019-Sep-15 01:58N 62°28' E 006°09'0 0.0
2019-Sep-15 01:28N 62°28' E 006°09'0 0.0
2019-Sep-15 00:58N 62°28' E 006°09'0 0.0
2019-Sep-15 00:28N 62°28' E 006°09'0 0.0
2019-Sep-14 23:58N 62°28' E 006°09'0 0.0
2019-Sep-14 23:28N 62°28' E 006°09'0 0.0
2019-Sep-14 22:58N 62°28' E 006°09'0 0.0
2019-Sep-14 22:28N 62°28' E 006°09'0 0.0
2019-Sep-14 21:58N 62°28' E 006°09'0 0.0
2019-Sep-14 21:28N 62°28' E 006°09'0 0.0
2019-Sep-14 20:58N 62°28' E 006°09'0 0.0
2019-Sep-14 20:28N 62°28' E 006°09'0 0.0
2019-Sep-14 19:58N 62°28' E 006°09'0 0.0
2019-Sep-14 19:28N 62°28' E 006°09'0 0.0
2019-Sep-14 18:58N 62°28' E 006°09'0 0.0
2019-Sep-14 18:28N 62°28' E 006°09'0 0.0
2019-Sep-14 17:58N 62°28' E 006°09'0 0.0
2019-Sep-14 17:25N 62°28' E 006°09'0 0.0
2019-Sep-14 16:55N 62°28' E 006°09'0 0.0
2019-Sep-14 16:28N 62°28' E 006°09'0 0.0
2019-Sep-14 15:58N 62°28' E 006°09'0 0.0
2019-Sep-14 15:28N 62°28' E 006°09'0 0.0
2019-Sep-14 14:58N 62°28' E 006°09'0 0.0
2019-Sep-14 14:25N 62°28' E 006°09'0 0.0
2019-Sep-14 13:58N 62°28' E 006°09'0 0.0
2019-Sep-14 13:28N 62°28' E 006°09'0 0.0
2019-Sep-14 12:58N 62°28' E 006°09'0 0.0
2019-Sep-14 12:25N 62°28' E 006°09'0 0.0
2019-Sep-14 11:58N 62°28' E 006°09'0 0.0
2019-Sep-14 11:28N 62°28' E 006°09'0 0.0
2019-Sep-14 10:58N 62°28' E 006°09'0 0.0
2019-Sep-14 10:28N 62°28' E 006°09'0 0.0
2019-Sep-14 09:58N 62°28' E 006°09'0 0.0
2019-Sep-14 09:28N 62°28' E 006°09'0 0.0
2019-Sep-14 08:58N 62°28' E 006°09'0 0.0
2019-Sep-14 08:28N 62°28' E 006°09'0 0.0
2019-Sep-14 07:58N 62°28' E 006°09'0 0.0
2019-Sep-14 07:28N 62°28' E 006°09'0 0.0
2019-Sep-14 06:58N 62°28' E 006°09'0 0.0
2019-Sep-14 06:28N 62°28' E 006°09'0 0.0
2019-Sep-14 05:58N 62°28' E 006°09'0 0.0
2019-Sep-14 05:28N 62°28' E 006°09'0 0.0
2019-Sep-14 04:55N 62°28' E 006°09'0 0.0
2019-Sep-14 04:28N 62°28' E 006°09'0 0.0
2019-Sep-14 03:58N 62°28' E 006°09'0 0.0
2019-Sep-14 03:28N 62°28' E 006°09'0 0.0
2019-Sep-14 02:58N 62°28' E 006°09'0 0.0
2019-Sep-14 02:28N 62°28' E 006°09'0 0.0
2019-Sep-14 01:58N 62°28' E 006°09'0 0.0
2019-Sep-14 01:25N 62°28' E 006°09'0 0.0
2019-Sep-14 00:58N 62°28' E 006°09'0 0.0
2019-Sep-14 00:28N 62°28' E 006°09'0 0.0
2019-Sep-13 23:58N 62°28' E 006°09'0 0.0
2019-Sep-13 23:28N 62°28' E 006°09'0 0.0
2019-Sep-13 22:58N 62°28' E 006°09'0 0.0
2019-Sep-13 22:28N 62°28' E 006°09'0 0.0
2019-Sep-13 21:58N 62°28' E 006°09'0 0.0
2019-Sep-13 21:28N 62°28' E 006°09'0 0.0
2019-Sep-13 20:58N 62°28' E 006°09'0 0.0
2019-Sep-13 20:28N 62°28' E 006°09'0 0.0
2019-Sep-13 19:58N 62°28' E 006°09'0 0.0
2019-Sep-13 19:28N 62°28' E 006°09'0 0.0
2019-Sep-13 18:58N 62°28' E 006°09'0 0.0
2019-Sep-13 18:28N 62°28' E 006°09'0 0.0
2019-Sep-13 17:58N 62°28' E 006°09'0 0.0
2019-Sep-13 17:28N 62°28' E 006°09'0 0.0
2019-Sep-13 16:58N 62°28' E 006°09'0 0.0
2019-Sep-13 16:28N 62°28' E 006°09'0 0.0
2019-Sep-13 15:58N 62°28' E 006°09'0 0.0
2019-Sep-13 15:28N 62°28' E 006°09'0 0.0
2019-Sep-13 14:58N 62°28' E 006°09'0 0.0
2019-Sep-13 14:25N 62°28' E 006°09'0 0.0
2019-Sep-13 13:52N 62°28' E 006°09'0 0.0
2019-Sep-13 13:28N 62°28' E 006°09'0 0.0
2019-Sep-13 12:58N 62°28' E 006°09'0 0.0
2019-Sep-13 12:28N 62°28' E 006°09'0 0.0
2019-Sep-13 11:58N 62°28' E 006°09'0 0.0
2019-Sep-13 11:28N 62°28' E 006°09'0 0.0
2019-Sep-13 10:58N 62°28' E 006°09'0 0.0
2019-Sep-13 10:28N 62°28' E 006°09'0 0.0
2019-Sep-13 09:58N 62°28' E 006°09'0 0.0
2019-Sep-13 09:25N 62°28' E 006°09'0 0.0
2019-Sep-13 08:58N 62°28' E 006°09'0 0.0
2019-Sep-13 08:25N 62°28' E 006°09'0 0.0
2019-Sep-13 07:58N 62°28' E 006°09'0 0.0
2019-Sep-13 07:28N 62°28' E 006°09'0 0.0
2019-Sep-13 06:58N 62°28' E 006°09'0 0.0
2019-Sep-13 06:28N 62°28' E 006°09'0 0.0
2019-Sep-13 05:58N 62°28' E 006°09'0 0.0
2019-Sep-13 05:25N 62°28' E 006°09'0 0.0
2019-Sep-13 04:58N 62°28' E 006°09'0 0.0
2019-Sep-13 04:28N 62°28' E 006°09'0 0.0
2019-Sep-13 03:58N 62°28' E 006°09'0 0.0
2019-Sep-13 03:28N 62°28' E 006°09'0 0.0
2019-Sep-13 02:58N 62°28' E 006°09'0 0.0
2019-Sep-13 01:58N 62°28' E 006°09'0 0.0
2019-Sep-13 01:28N 62°28' E 006°09'0 0.0
2019-Sep-13 00:58N 62°28' E 006°09'0 0.0
2019-Sep-13 00:28N 62°28' E 006°09'0 0.0
2019-Sep-12 23:55N 62°28' E 006°09'0 0.0
2019-Sep-12 23:28N 62°28' E 006°09'0 0.0
2019-Sep-12 22:58N 62°28' E 006°09'0 0.0
2019-Sep-12 22:28N 62°28' E 006°09'0 0.0
2019-Sep-12 21:58N 62°28' E 006°09'0 0.0
2019-Sep-12 21:28N 62°28' E 006°09'0 0.0
2019-Sep-12 20:58N 62°28' E 006°09'0 0.0
2019-Sep-12 20:28N 62°28' E 006°09'0 0.0
2019-Sep-12 19:58N 62°28' E 006°09'0 0.0
2019-Sep-12 19:28N 62°28' E 006°09'0 0.0
2019-Sep-12 18:58N 62°28' E 006°09'0 0.0
2019-Sep-12 18:28N 62°28' E 006°09'0 0.0
2019-Sep-12 17:58N 62°28' E 006°09'0 0.0
2019-Sep-12 17:28N 62°28' E 006°09'0 0.0
2019-Sep-12 16:58N 62°28' E 006°09'0 0.0
2019-Sep-12 16:28N 62°28' E 006°09'0 0.0
2019-Sep-12 15:58N 62°28' E 006°09'0 0.0
2019-Sep-12 15:28N 62°28' E 006°09'0 0.0
2019-Sep-12 14:58N 62°28' E 006°09'0 0.0
2019-Sep-12 14:25N 62°28' E 006°09'0 0.0
2019-Sep-12 13:58N 62°28' E 006°09'0 0.0
2019-Sep-12 13:28N 62°28' E 006°09'0 0.0
2019-Sep-12 12:58N 62°28' E 006°09'0 0.0
2019-Sep-12 12:28N 62°28' E 006°09'0 0.0
2019-Sep-12 11:58N 62°28' E 006°09'0 0.0
2019-Sep-12 11:28N 62°28' E 006°09'0 0.0
2019-Sep-12 10:58N 62°28' E 006°09'0 0.0
2019-Sep-12 10:28N 62°28' E 006°09'0 0.0
2019-Sep-12 09:52N 62°28' E 006°09'0 0.0
2019-Sep-12 09:28N 62°28' E 006°09'0 0.0
2019-Sep-12 08:58N 62°28' E 006°09'0 0.0
2019-Sep-12 08:28N 62°28' E 006°09'0 0.0
2019-Sep-12 07:58N 62°28' E 006°09'0 0.0
2019-Sep-12 07:28N 62°28' E 006°09'0 0.0
2019-Sep-12 06:55N 62°28' E 006°09'0 0.0
2019-Sep-12 06:28N 62°28' E 006°09'0 0.0
2019-Sep-12 05:58N 62°28' E 006°09'0 0.0
2019-Sep-12 05:28N 62°28' E 006°09'0 0.0
2019-Sep-12 04:58N 62°28' E 006°09'0 0.0
2019-Sep-12 04:28N 62°28' E 006°09'0 0.0
2019-Sep-12 03:58N 62°28' E 006°09'0 0.0
2019-Sep-12 03:28N 62°28' E 006°09'0 0.0
2019-Sep-12 02:58N 62°28' E 006°09'0 0.0
2019-Sep-12 02:25N 62°28' E 006°09'0 0.0
2019-Sep-12 01:58N 62°28' E 006°09'0 0.0
2019-Sep-12 01:28N 62°28' E 006°09'0 0.0
2019-Sep-12 00:58N 62°28' E 006°09'0 0.0
2019-Sep-12 00:28N 62°28' E 006°09'0 0.0
2019-Sep-11 23:58N 62°28' E 006°09'0 0.0
2019-Sep-11 23:28N 62°28' E 006°09'0 0.0
2019-Sep-11 22:58N 62°28' E 006°09'0 0.0
2019-Sep-11 22:28N 62°28' E 006°09'0 0.0
2019-Sep-11 21:58N 62°28' E 006°09'0 0.0
2019-Sep-11 21:28N 62°28' E 006°09'  
Track history (hours):
 
Tides and Currents Weather Stations Pressure Air Temp Water Temp Dewpoint Dewpoint Depression Visibility Wind Speed Wind Dir Waves Ship Positions

Sorlandet (Norway)

Last reported at 2019-Sep-21 21:00 UTC. Time now 2019-Sep-21 21:22 UTC.
Position N 49°48' W 001°59'.

Length 64 m; draft 4.5 m.

Type: Sailing vessel. MMSI: 257165000.

Date/timePositionNaut miles runAvg speedWind from/ knotsBaromVisibWave heightAir tempDewpointWater temp
2019-Sep-21 21:00N 49°48' W 001°59'2 3.4
2019-Sep-21 20:30N 49°48' W 001°56'2 4.0
2019-Sep-21 20:00N 49°49' W 001°53'3 5.0
2019-Sep-21 19:30N 49°49' W 001°49'3 5.7
2019-Sep-21 19:00N 49°50' W 001°45'3 5.9
2019-Sep-21 18:30N 49°51' W 001°40'3 6.3
2019-Sep-21 18:00N 49°51' W 001°36'3 5.8
2019-Sep-21 17:30N 49°52' W 001°31'3 6.1
2019-Sep-21 17:00N 49°53' W 001°27'3 6.2
2019-Sep-21 16:30N 49°54' W 001°22'3 6.7
2019-Sep-21 16:00N 49°55' W 001°17'4 7.0
2019-Sep-21 15:30N 49°56' W 001°12'3 6.4
2019-Sep-21 15:00N 49°58' W 001°08'3 6.0
2019-Sep-21 14:30N 49°59' W 001°04'3 5.5
2019-Sep-21 14:00N 50°01' W 001°00'2 5.0
2019-Sep-21 13:30N 50°02' W 000°58'2 4.7
2019-Sep-21 13:00N 50°04' W 000°55'2 4.7
2019-Sep-21 12:30N 50°05' W 000°52'2 4.7
2019-Sep-21 12:00N 50°07' W 000°49'2 4.7
2019-Sep-21 11:30N 50°08' W 000°46'3 5.1
2019-Sep-21 11:00N 50°10' W 000°43'4 6.7
2019-Sep-21 10:26N 50°13' W 000°39'5 6.5
2019-Sep-21 09:38N 50°16' W 000°33'1 6.9
2019-Sep-21 09:27N 50°17' W 000°31'76 7.6
2019-Sep-20 23:27N 50°56' E 001°12'11 8.7
2019-Sep-20 22:13N 51°03' E 001°25'210.7
2019-Sep-20 22:00N 51°04' E 001°28'510.9
2019-Sep-20 21:30N 51°07' E 001°35'611.2
2019-Sep-20 21:00N 51°11' E 001°41'510.1
2019-Sep-20 20:30N 51°15' E 001°46'5 9.5
2019-Sep-20 20:00N 51°20' E 001°49'5 9.0
2019-Sep-20 19:30N 51°24' E 001°52'4 8.5
2019-Sep-20 19:00N 51°28' E 001°55'4 8.7
2019-Sep-20 18:30N 51°31' E 001°59'21 8.0
2019-Sep-20 15:51N 51°51' E 002°11'4 7.6
2019-Sep-20 15:23N 51°55' E 002°13'4 7.3
2019-Sep-20 14:54N 51°58' E 002°14'3 7.2
2019-Sep-20 14:30N 52°01' E 002°16'5 7.3
2019-Sep-20 13:51N 52°05' E 002°18'3 7.2
2019-Sep-20 13:23N 52°09' E 002°20'4 6.6
2019-Sep-20 12:47N 52°12' E 002°22'2 6.5
2019-Sep-20 12:25N 52°15' E 002°23'3 7.0
2019-Sep-20 12:00N 52°17' E 002°25'6 6.6
2019-Sep-20 11:09N 52°22' E 002°28'1 5.2
2019-Sep-20 10:57N 52°23' E 002°29'5 6.9
2019-Sep-20 10:12N 52°28' E 002°31'2 6.7
2019-Sep-20 09:52N 52°30' E 002°33'344 6.6
2019-Sep-18 05:57N 58°13' E 003°41'13 8.5
2019-Sep-18 04:27N 58°25' E 003°39'4 8.4
2019-Sep-18 03:59N 58°29' E 003°39'4 8.1
2019-Sep-18 03:28N 58°33' E 003°38'4 8.3
2019-Sep-18 02:59N 58°38' E 003°37'19 7.8
2019-Sep-18 00:34N 58°56' E 003°33'1 8.1
2019-Sep-18 00:29N 58°57' E 003°33'4 8.0
2019-Sep-18 00:00N 59°01' E 003°33'4 7.8
2019-Sep-17 23:30N 59°05' E 003°33'4 7.5
2019-Sep-17 23:00N 59°08' E 003°33'4 7.7
2019-Sep-17 22:30N 59°12' E 003°32'4 7.4
2019-Sep-17 22:00N 59°16' E 003°32'4 7.8
2019-Sep-17 21:30N 59°20' E 003°32'4 8.0
2019-Sep-17 21:00N 59°24' E 003°33'4 7.5
2019-Sep-17 20:29N 59°28' E 003°34'4 8.0
2019-Sep-17 20:00N 59°31' E 003°35'4 8.5
2019-Sep-17 19:30N 59°36' E 003°36'4 8.4
2019-Sep-17 19:00N 59°40' E 003°37'4 7.9
2019-Sep-17 18:30N 59°44' E 003°38'4 7.9
2019-Sep-17 18:00N 59°48' E 003°39'4 8.0
2019-Sep-17 17:30N 59°52' E 003°40'4 8.2
2019-Sep-17 17:00N 59°56' E 003°41'5 9.0
2019-Sep-17 16:30N 60°00' E 003°42'5 9.3
2019-Sep-17 16:00N 60°05' E 003°43'4 8.9
2019-Sep-17 15:30N 60°09' E 003°44'5 9.6
2019-Sep-17 15:00N 60°14' E 003°44'5 9.2
2019-Sep-17 14:30N 60°19' E 003°45'5 9.9
2019-Sep-17 14:00N 60°24' E 003°46'5 9.5
2019-Sep-17 13:30N 60°28' E 003°47'5 9.5
2019-Sep-17 13:00N 60°33' E 003°47'5 9.4
2019-Sep-17 12:30N 60°38' E 003°48'5 8.9
2019-Sep-17 12:00N 60°42' E 003°48'4 8.7
2019-Sep-17 11:30N 60°47' E 003°49'4 7.9
2019-Sep-17 11:00N 60°50' E 003°51'4 8.6
2019-Sep-17 10:30N 60°54' E 003°54'4 7.6
2019-Sep-17 10:00N 60°58' E 003°57'3 6.6
2019-Sep-17 09:29N 61°01' E 004°00'4 7.8
2019-Sep-17 08:59N 61°05' E 004°02'3 5.8
2019-Sep-17 08:30N 61°07' E 004°03'2 3.9
2019-Sep-17 08:00N 61°09' E 004°05'2 3.7
2019-Sep-17 07:30N 61°11' E 004°05'2 3.4
2019-Sep-17 07:00N 61°13' E 004°07'2 3.4
2019-Sep-17 06:30N 61°14' E 004°08'2 4.1
2019-Sep-17 06:00N 61°16' E 004°09'3 6.0
2019-Sep-17 05:30N 61°19' E 004°10'3 6.0
2019-Sep-17 05:00N 61°22' E 004°11'3 6.1
2019-Sep-17 04:29N 61°25' E 004°12'3 6.9
2019-Sep-17 04:01N 61°29' E 004°13'3 5.8
2019-Sep-17 03:29N 61°31' E 004°14'3 6.3
2019-Sep-17 03:00N 61°35' E 004°14'3 6.4
2019-Sep-17 02:30N 61°38' E 004°14'3 6.0
2019-Sep-17 01:59N 61°41' E 004°15'3 6.4
2019-Sep-17 01:30N 61°44' E 004°16'3 6.3
2019-Sep-17 01:01N 61°47' E 004°18'3 5.6
2019-Sep-17 00:29N 61°49' E 004°21'3 5.7
2019-Sep-17 00:00N 61°52' E 004°24'3 5.4
2019-Sep-16 23:30N 61°54' E 004°28'3 5.5
2019-Sep-16 22:59N 61°56' E 004°31'3 5.2
2019-Sep-16 22:30N 61°58' E 004°34'2 5.0
2019-Sep-16 22:00N 62°00' E 004°38'3 5.4
2019-Sep-16 21:31N 62°02' E 004°41'3 5.4
2019-Sep-16 21:00N 62°05' E 004°43'3 5.1
2019-Sep-16 20:30N 62°07' E 004°46'3 5.6
2019-Sep-16 20:00N 62°10' E 004°49'3 5.8
2019-Sep-16 19:30N 62°12' E 004°51'3 6.0
2019-Sep-16 19:00N 62°15' E 004°54'2 4.9
2019-Sep-16 18:30N 62°16' E 004°58'2 3.6
2019-Sep-16 18:00N 62°17' E 005°02'1 2.9
2019-Sep-16 17:29N 62°17' E 005°05'2 3.1
2019-Sep-16 17:00N 62°17' E 005°08'2 3.2
2019-Sep-16 16:30N 62°17' E 005°11'2 3.0
2019-Sep-16 16:00N 62°17' E 005°15'2 3.3
2019-Sep-16 15:30N 62°17' E 005°18'2 3.8
2019-Sep-16 15:01N 62°17' E 005°22'2 4.1
2019-Sep-16 14:30N 62°17' E 005°27'2 3.5
2019-Sep-16 13:59N 62°16' E 005°30'3 7.1
2019-Sep-16 13:31N 62°13' E 005°32'3 6.8
2019-Sep-16 13:00N 62°11' E 005°38'3 6.5
2019-Sep-16 12:30N 62°12' E 005°45'4 7.2
2019-Sep-16 11:59N 62°13' E 005°52'4 6.9
2019-Sep-16 11:28N 62°16' E 005°57'3 6.1
2019-Sep-16 10:57N 62°18' E 006°02'3 6.8
2019-Sep-16 10:30N 62°20' E 006°06'3 6.0
2019-Sep-16 10:00N 62°23' E 006°05'3 6.6
2019-Sep-16 09:30N 62°26' E 006°02'3 5.5
2019-Sep-16 09:00N 62°28' E 006°05'2 3.9
2019-Sep-16 08:30N 62°28' E 006°09'0 0.0
2019-Sep-16 07:58N 62°28' E 006°09'0 0.0
2019-Sep-16 07:29N 62°28' E 006°09'0 0.0
2019-Sep-16 06:58N 62°28' E 006°09'0 0.0
2019-Sep-16 06:29N 62°28' E 006°09'0 0.0
2019-Sep-16 05:56N 62°28' E 006°09'0 0.0
2019-Sep-16 05:29N 62°28' E 006°09'0 0.0
2019-Sep-16 04:58N 62°28' E 006°09'0 0.0
2019-Sep-16 04:29N 62°28' E 006°09'0 0.0
2019-Sep-16 03:58N 62°28' E 006°09'0 0.0
2019-Sep-16 03:29N 62°28' E 006°09'0 0.0
2019-Sep-16 02:59N 62°28' E 006°09'0 0.0
2019-Sep-16 02:28N 62°28' E 006°09'0 0.0
2019-Sep-16 01:58N 62°28' E 006°09'0 0.0
2019-Sep-16 01:28N 62°28' E 006°09'0 0.0
2019-Sep-16 00:58N 62°28' E 006°09'0 0.0
2019-Sep-16 00:28N 62°28' E 006°09'0 0.0
2019-Sep-15 23:58N 62°28' E 006°09'0 0.0
2019-Sep-15 23:28N 62°28' E 006°09'0 0.0
2019-Sep-15 22:59N 62°28' E 006°09'0 0.0
2019-Sep-15 22:28N 62°28' E 006°09'0 0.0
2019-Sep-15 21:58N 62°28' E 006°09'0 0.0
2019-Sep-15 21:28N 62°28' E 006°09'0 0.0
2019-Sep-15 20:56N 62°28' E 006°09'0 0.0
2019-Sep-15 20:28N 62°28' E 006°09'0 0.0
2019-Sep-15 19:55N 62°28' E 006°09'0 0.0
2019-Sep-15 19:28N 62°28' E 006°09'0 0.0
2019-Sep-15 18:58N 62°28' E 006°09'0 0.0
2019-Sep-15 18:28N 62°28' E 006°09'0 0.0
2019-Sep-15 17:58N 62°28' E 006°09'0 0.0
2019-Sep-15 17:28N 62°28' E 006°09'0 0.0
2019-Sep-15 16:58N 62°28' E 006°09'0 0.0
2019-Sep-15 16:28N 62°28' E 006°09'0 0.0
2019-Sep-15 15:58N 62°28' E 006°09'0 0.0
2019-Sep-15 15:28N 62°28' E 006°09'0 0.0
2019-Sep-15 14:58N 62°28' E 006°09'0 0.0
2019-Sep-15 14:28N 62°28' E 006°09'0 0.0
2019-Sep-15 13:58N 62°28' E 006°09'0 0.0
2019-Sep-15 13:25N 62°28' E 006°09'0 0.0
2019-Sep-15 12:58N 62°28' E 006°09'0 0.0
2019-Sep-15 12:28N 62°28' E 006°09'0 0.0
2019-Sep-15 11:58N 62°28' E 006°09'0 0.0
2019-Sep-15 11:29N 62°28' E 006°09'0 0.0
2019-Sep-15 10:58N 62°28' E 006°09'0 0.0
2019-Sep-15 10:28N 62°28' E 006°09'0 0.0
2019-Sep-15 09:58N 62°28' E 006°09'0 0.0
2019-Sep-15 09:28N 62°28' E 006°09'0 0.0
2019-Sep-15 08:58N 62°28' E 006°09'0 0.0
2019-Sep-15 08:28N 62°28' E 006°09'0 0.0
2019-Sep-15 07:58N 62°28' E 006°09'0 0.0
2019-Sep-15 07:28N 62°28' E 006°09'0 0.0
2019-Sep-15 06:58N 62°28' E 006°09'0 0.0
2019-Sep-15 06:28N 62°28' E 006°09'0 0.0
2019-Sep-15 05:58N 62°28' E 006°09'0 0.0
2019-Sep-15 05:28N 62°28' E 006°09'0 0.0
2019-Sep-15 04:58N 62°28' E 006°09'0 0.0
2019-Sep-15 04:28N 62°28' E 006°09'0 0.0
2019-Sep-15 03:58N 62°28' E 006°09'0 0.0
2019-Sep-15 03:28N 62°28' E 006°09'0 0.0
2019-Sep-15 02:55N 62°28' E 006°09'0 0.0
2019-Sep-15 02:28N 62°28' E 006°09'0 0.0
2019-Sep-15 01:58N 62°28' E 006°09'0 0.0
2019-Sep-15 01:28N 62°28' E 006°09'0 0.0
2019-Sep-15 00:58N 62°28' E 006°09'0 0.0
2019-Sep-15 00:28N 62°28' E 006°09'0 0.0
2019-Sep-14 23:58N 62°28' E 006°09'0 0.0
2019-Sep-14 23:28N 62°28' E 006°09'0 0.0
2019-Sep-14 22:58N 62°28' E 006°09'0 0.0
2019-Sep-14 22:28N 62°28' E 006°09'0 0.0
2019-Sep-14 21:58N 62°28' E 006°09'0 0.0
2019-Sep-14 21:28N 62°28' E 006°09'0 0.0
2019-Sep-14 20:58N 62°28' E 006°09'0 0.0
2019-Sep-14 20:28N 62°28' E 006°09'0 0.0
2019-Sep-14 19:58N 62°28' E 006°09'0 0.0
2019-Sep-14 19:28N 62°28' E 006°09'0 0.0
2019-Sep-14 18:58N 62°28' E 006°09'0 0.0
2019-Sep-14 18:28N 62°28' E 006°09'0 0.0
2019-Sep-14 17:58N 62°28' E 006°09'0 0.0
2019-Sep-14 17:25N 62°28' E 006°09'0 0.0
2019-Sep-14 16:55N 62°28' E 006°09'0 0.0
2019-Sep-14 16:28N 62°28' E 006°09'0 0.0
2019-Sep-14 15:58N 62°28' E 006°09'0 0.0
2019-Sep-14 15:28N 62°28' E 006°09'0 0.0
2019-Sep-14 14:58N 62°28' E 006°09'0 0.0
2019-Sep-14 14:25N 62°28' E 006°09'0 0.0
2019-Sep-14 13:58N 62°28' E 006°09'0 0.0
2019-Sep-14 13:28N 62°28' E 006°09'0 0.0
2019-Sep-14 12:58N 62°28' E 006°09'0 0.0
2019-Sep-14 12:25N 62°28' E 006°09'0 0.0
2019-Sep-14 11:58N 62°28' E 006°09'0 0.0
2019-Sep-14 11:28N 62°28' E 006°09'0 0.0
2019-Sep-14 10:58N 62°28' E 006°09'0 0.0
2019-Sep-14 10:28N 62°28' E 006°09'0 0.0
2019-Sep-14 09:58N 62°28' E 006°09'0 0.0
2019-Sep-14 09:28N 62°28' E 006°09'0 0.0
2019-Sep-14 08:58N 62°28' E 006°09'0 0.0
2019-Sep-14 08:28N 62°28' E 006°09'0 0.0
2019-Sep-14 07:58N 62°28' E 006°09'0 0.0
2019-Sep-14 07:28N 62°28' E 006°09'0 0.0
2019-Sep-14 06:58N 62°28' E 006°09'0 0.0
2019-Sep-14 06:28N 62°28' E 006°09'0 0.0
2019-Sep-14 05:58N 62°28' E 006°09'0 0.0
2019-Sep-14 05:28N 62°28' E 006°09'0 0.0
2019-Sep-14 04:55N 62°28' E 006°09'0 0.0
2019-Sep-14 04:28N 62°28' E 006°09'0 0.0
2019-Sep-14 03:58N 62°28' E 006°09'0 0.0
2019-Sep-14 03:28N 62°28' E 006°09'0 0.0
2019-Sep-14 02:58N 62°28' E 006°09'0 0.0
2019-Sep-14 02:28N 62°28' E 006°09'0 0.0
2019-Sep-14 01:58N 62°28' E 006°09'0 0.0
2019-Sep-14 01:25N 62°28' E 006°09'0 0.0
2019-Sep-14 00:58N 62°28' E 006°09'0 0.0
2019-Sep-14 00:28N 62°28' E 006°09'0 0.0
2019-Sep-13 23:58N 62°28' E 006°09'0 0.0
2019-Sep-13 23:28N 62°28' E 006°09'0 0.0
2019-Sep-13 22:58N 62°28' E 006°09'0 0.0
2019-Sep-13 22:28N 62°28' E 006°09'0 0.0
2019-Sep-13 21:58N 62°28' E 006°09'0 0.0
2019-Sep-13 21:28N 62°28' E 006°09'0 0.0
2019-Sep-13 20:58N 62°28' E 006°09'0 0.0
2019-Sep-13 20:28N 62°28' E 006°09'0 0.0
2019-Sep-13 19:58N 62°28' E 006°09'0 0.0
2019-Sep-13 19:28N 62°28' E 006°09'0 0.0
2019-Sep-13 18:58N 62°28' E 006°09'0 0.0
2019-Sep-13 18:28N 62°28' E 006°09'0 0.0
2019-Sep-13 17:58N 62°28' E 006°09'0 0.0
2019-Sep-13 17:28N 62°28' E 006°09'0 0.0
2019-Sep-13 16:58N 62°28' E 006°09'0 0.0
2019-Sep-13 16:28N 62°28' E 006°09'0 0.0
2019-Sep-13 15:58N 62°28' E 006°09'0 0.0
2019-Sep-13 15:28N 62°28' E 006°09'0 0.0
2019-Sep-13 14:58N 62°28' E 006°09'0 0.0
2019-Sep-13 14:25N 62°28' E 006°09'0 0.0
2019-Sep-13 13:52N 62°28' E 006°09'0 0.0
2019-Sep-13 13:28N 62°28' E 006°09'0 0.0
2019-Sep-13 12:58N 62°28' E 006°09'0 0.0
2019-Sep-13 12:28N 62°28' E 006°09'0 0.0
2019-Sep-13 11:58N 62°28' E 006°09'0 0.0
2019-Sep-13 11:28N 62°28' E 006°09'0 0.0
2019-Sep-13 10:58N 62°28' E 006°09'0 0.0
2019-Sep-13 10:28N 62°28' E 006°09'0 0.0
2019-Sep-13 09:58N 62°28' E 006°09'0 0.0
2019-Sep-13 09:25N 62°28' E 006°09'0 0.0
2019-Sep-13 08:58N 62°28' E 006°09'0 0.0
2019-Sep-13 08:25N 62°28' E 006°09'0 0.0
2019-Sep-13 07:58N 62°28' E 006°09'0 0.0
2019-Sep-13 07:28N 62°28' E 006°09'0 0.0
2019-Sep-13 06:58N 62°28' E 006°09'0 0.0
2019-Sep-13 06:28N 62°28' E 006°09'0 0.0
2019-Sep-13 05:58N 62°28' E 006°09'0 0.0
2019-Sep-13 05:25N 62°28' E 006°09'0 0.0
2019-Sep-13 04:58N 62°28' E 006°09'0 0.0
2019-Sep-13 04:28N 62°28' E 006°09'0 0.0
2019-Sep-13 03:58N 62°28' E 006°09'0 0.0
2019-Sep-13 03:28N 62°28' E 006°09'0 0.0
2019-Sep-13 02:58N 62°28' E 006°09'0 0.0
2019-Sep-13 01:58N 62°28' E 006°09'0 0.0
2019-Sep-13 01:28N 62°28' E 006°09'0 0.0
2019-Sep-13 00:58N 62°28' E 006°09'0 0.0
2019-Sep-13 00:28N 62°28' E 006°09'0 0.0
2019-Sep-12 23:55N 62°28' E 006°09'0 0.0
2019-Sep-12 23:28N 62°28' E 006°09'0 0.0
2019-Sep-12 22:58N 62°28' E 006°09'0 0.0
2019-Sep-12 22:28N 62°28' E 006°09'0 0.0
2019-Sep-12 21:58N 62°28' E 006°09'0 0.0
2019-Sep-12 21:28N 62°28' E 006°09'0 0.0
2019-Sep-12 20:58N 62°28' E 006°09'0 0.0
2019-Sep-12 20:28N 62°28' E 006°09'0 0.0
2019-Sep-12 19:58N 62°28' E 006°09'0 0.0
2019-Sep-12 19:28N 62°28' E 006°09'0 0.0
2019-Sep-12 18:58N 62°28' E 006°09'0 0.0
2019-Sep-12 18:28N 62°28' E 006°09'0 0.0
2019-Sep-12 17:58N 62°28' E 006°09'0 0.0
2019-Sep-12 17:28N 62°28' E 006°09'0 0.0
2019-Sep-12 16:58N 62°28' E 006°09'0 0.0
2019-Sep-12 16:28N 62°28' E 006°09'0 0.0
2019-Sep-12 15:58N 62°28' E 006°09'0 0.0
2019-Sep-12 15:28N 62°28' E 006°09'0 0.0
2019-Sep-12 14:58N 62°28' E 006°09'0 0.0
2019-Sep-12 14:25N 62°28' E 006°09'0 0.0
2019-Sep-12 13:58N 62°28' E 006°09'0 0.0
2019-Sep-12 13:28N 62°28' E 006°09'0 0.0
2019-Sep-12 12:58N 62°28' E 006°09'0 0.0
2019-Sep-12 12:28N 62°28' E 006°09'0 0.0
2019-Sep-12 11:58N 62°28' E 006°09'0 0.0
2019-Sep-12 11:28N 62°28' E 006°09'0 0.0
2019-Sep-12 10:58N 62°28' E 006°09'0 0.0
2019-Sep-12 10:28N 62°28' E 006°09'0 0.0
2019-Sep-12 09:52N 62°28' E 006°09'0 0.0
2019-Sep-12 09:28N 62°28' E 006°09'0 0.0
2019-Sep-12 08:58N 62°28' E 006°09'0 0.0
2019-Sep-12 08:28N 62°28' E 006°09'0 0.0
2019-Sep-12 07:58N 62°28' E 006°09'0 0.0
2019-Sep-12 07:28N 62°28' E 006°09'0 0.0
2019-Sep-12 06:55N 62°28' E 006°09'0 0.0
2019-Sep-12 06:28N 62°28' E 006°09'0 0.0
2019-Sep-12 05:58N 62°28' E 006°09'0 0.0
2019-Sep-12 05:28N 62°28' E 006°09'0 0.0
2019-Sep-12 04:58N 62°28' E 006°09'0 0.0
2019-Sep-12 04:28N 62°28' E 006°09'0 0.0
2019-Sep-12 03:58N 62°28' E 006°09'0 0.0
2019-Sep-12 03:28N 62°28' E 006°09'0 0.0
2019-Sep-12 02:58N 62°28' E 006°09'0 0.0
2019-Sep-12 02:25N 62°28' E 006°09'0 0.0
2019-Sep-12 01:58N 62°28' E 006°09'0 0.0
2019-Sep-12 01:28N 62°28' E 006°09'0 0.0
2019-Sep-12 00:58N 62°28' E 006°09'0 0.0
2019-Sep-12 00:28N 62°28' E 006°09'0 0.0
2019-Sep-11 23:58N 62°28' E 006°09'0 0.0
2019-Sep-11 23:28N 62°28' E 006°09'0 0.0
2019-Sep-11 22:58N 62°28' E 006°09'0 0.0
2019-Sep-11 22:28N 62°28' E 006°09'0 0.0
2019-Sep-11 21:58N 62°28' E 006°09'0 0.0
2019-Sep-11 21:28N 62°28' E 006°09'  

Dump ship's entire track history